sensor_id;sensor_type;location;lat;lon;timestamp;temperature;humidity
23120;DHT22;11729;50.836;4.330;2024-03-08T00:00:54;7.40;99.90
23120;DHT22;11729;50.836;4.330;2024-03-08T00:03:20;7.40;99.90
23120;DHT22;11729;50.836;4.330;2024-03-08T00:05:46;7.50;99.90
23120;DHT22;11729;50.836;4.330;2024-03-08T00:08:11;7.50;99.90
23120;DHT22;11729;50.836;4.330;2024-03-08T00:10:37;7.50;99.90
23120;DHT22;11729;50.836;4.330;2024-03-08T00:13:04;7.40;99.90
23120;DHT22;11729;50.836;4.330;2024-03-08T00:15:30;7.40;99.90
23120;DHT22;11729;50.836;4.330;2024-03-08T00:17:57;7.30;99.90
23120;DHT22;11729;50.836;4.330;2024-03-08T00:20:23;7.10;99.90
23120;DHT22;11729;50.836;4.330;2024-03-08T00:22:49;7.20;99.90
23120;DHT22;11729;50.836;4.330;2024-03-08T00:25:15;7.20;99.90
23120;DHT22;11729;50.836;4.330;2024-03-08T00:27:40;7.10;99.90
23120;DHT22;11729;50.836;4.330;2024-03-08T00:30:09;7.20;99.90
23120;DHT22;11729;50.836;4.330;2024-03-08T00:32:36;7.10;99.90
23120;DHT22;11729;50.836;4.330;2024-03-08T00:35:02;7.00;99.90
23120;DHT22;11729;50.836;4.330;2024-03-08T00:37:28;6.90;99.90
23120;DHT22;11729;50.836;4.330;2024-03-08T00:39:53;6.90;99.90
23120;DHT22;11729;50.836;4.330;2024-03-08T00:42:20;7.00;99.90
23120;DHT22;11729;50.836;4.330;2024-03-08T00:44:46;6.90;99.90
23120;DHT22;11729;50.836;4.330;2024-03-08T00:47:12;6.90;99.90
23120;DHT22;11729;50.836;4.330;2024-03-08T00:49:40;6.80;99.90
23120;DHT22;11729;50.836;4.330;2024-03-08T00:52:06;6.70;99.90
23120;DHT22;11729;50.836;4.330;2024-03-08T00:54:36;6.70;99.90
23120;DHT22;11729;50.836;4.330;2024-03-08T00:57:03;6.60;99.90
23120;DHT22;11729;50.836;4.330;2024-03-08T00:59:31;6.70;99.90
23120;DHT22;11729;50.836;4.330;2024-03-08T01:01:59;6.80;99.90
23120;DHT22;11729;50.836;4.330;2024-03-08T01:04:25;6.50;99.90
23120;DHT22;11729;50.836;4.330;2024-03-08T01:06:57;6.50;99.90
23120;DHT22;11729;50.836;4.330;2024-03-08T01:09:24;6.60;99.90
23120;DHT22;11729;50.836;4.330;2024-03-08T01:11:50;6.80;99.90
23120;DHT22;11729;50.836;4.330;2024-03-08T01:14:18;6.80;99.90
23120;DHT22;11729;50.836;4.330;2024-03-08T01:16:45;6.70;99.90
23120;DHT22;11729;50.836;4.330;2024-03-08T01:19:11;6.60;99.90
23120;DHT22;11729;50.836;4.330;2024-03-08T01:21:36;6.60;99.90
23120;DHT22;11729;50.836;4.330;2024-03-08T01:24:02;6.70;99.90
23120;DHT22;11729;50.836;4.330;2024-03-08T01:26:28;6.70;99.90
23120;DHT22;11729;50.836;4.330;2024-03-08T01:28:55;6.70;99.90
23120;DHT22;11729;50.836;4.330;2024-03-08T01:31:22;6.70;99.90
23120;DHT22;11729;50.836;4.330;2024-03-08T01:33:48;6.50;99.90
23120;DHT22;11729;50.836;4.330;2024-03-08T01:36:15;6.60;99.90
23120;DHT22;11729;50.836;4.330;2024-03-08T01:38:42;6.50;99.90
23120;DHT22;11729;50.836;4.330;2024-03-08T01:41:08;6.50;99.90
23120;DHT22;11729;50.836;4.330;2024-03-08T01:43:35;6.60;99.90
23120;DHT22;11729;50.836;4.330;2024-03-08T01:46:01;6.40;99.90
23120;DHT22;11729;50.836;4.330;2024-03-08T01:48:30;6.40;99.90
23120;DHT22;11729;50.836;4.330;2024-03-08T01:50:57;6.30;99.90
23120;DHT22;11729;50.836;4.330;2024-03-08T01:53:24;6.30;99.90
23120;DHT22;11729;50.836;4.330;2024-03-08T01:55:53;6.50;99.90
23120;DHT22;11729;50.836;4.330;2024-03-08T01:58:20;6.40;99.90
23120;DHT22;11729;50.836;4.330;2024-03-08T02:00:48;6.20;99.90
23120;DHT22;11729;50.836;4.330;2024-03-08T02:03:17;6.20;99.90
23120;DHT22;11729;50.836;4.330;2024-03-08T02:05:43;6.30;99.90
23120;DHT22;11729;50.836;4.330;2024-03-08T02:08:09;6.10;99.90
23120;DHT22;11729;50.836;4.330;2024-03-08T02:10:44;6.10;99.90
23120;DHT22;11729;50.836;4.330;2024-03-08T02:13:11;6.20;99.90
23120;DHT22;11729;50.836;4.330;2024-03-08T02:15:56;6.20;99.90
23120;DHT22;11729;50.836;4.330;2024-03-08T02:18:23;6.20;99.90
23120;DHT22;11729;50.836;4.330;2024-03-08T02:20:52;6.10;99.90
23120;DHT22;11729;50.836;4.330;2024-03-08T02:23:19;6.10;99.90
23120;DHT22;11729;50.836;4.330;2024-03-08T02:25:45;6.20;99.90
23120;DHT22;11729;50.836;4.330;2024-03-08T02:28:12;6.30;99.90
23120;DHT22;11729;50.836;4.330;2024-03-08T02:30:38;6.40;99.90
23120;DHT22;11729;50.836;4.330;2024-03-08T02:33:05;6.20;99.90
23120;DHT22;11729;50.836;4.330;2024-03-08T02:35:31;6.10;99.90
23120;DHT22;11729;50.836;4.330;2024-03-08T02:37:57;6.00;99.90
23120;DHT22;11729;50.836;4.330;2024-03-08T02:40:23;6.00;99.90
23120;DHT22;11729;50.836;4.330;2024-03-08T02:42:49;5.80;99.90
23120;DHT22;11729;50.836;4.330;2024-03-08T02:45:15;5.80;99.90
23120;DHT22;11729;50.836;4.330;2024-03-08T02:47:41;5.90;99.90
23120;DHT22;11729;50.836;4.330;2024-03-08T02:50:07;6.10;99.90
23120;DHT22;11729;50.836;4.330;2024-03-08T02:52:35;5.90;99.90
23120;DHT22;11729;50.836;4.330;2024-03-08T02:55:02;5.90;99.90
23120;DHT22;11729;50.836;4.330;2024-03-08T02:57:27;5.80;99.90
23120;DHT22;11729;50.836;4.330;2024-03-08T02:59:54;6.10;99.90
23120;DHT22;11729;50.836;4.330;2024-03-08T03:02:19;6.00;99.90
23120;DHT22;11729;50.836;4.330;2024-03-08T03:04:45;5.70;99.90
23120;DHT22;11729;50.836;4.330;2024-03-08T03:07:11;5.70;99.90
23120;DHT22;11729;50.836;4.330;2024-03-08T03:09:37;5.70;99.90
23120;DHT22;11729;50.836;4.330;2024-03-08T03:12:03;5.60;99.90
23120;DHT22;11729;50.836;4.330;2024-03-08T03:14:29;5.60;99.90
23120;DHT22;11729;50.836;4.330;2024-03-08T03:16:55;5.70;99.90
23120;DHT22;11729;50.836;4.330;2024-03-08T03:19:20;5.80;99.90
23120;DHT22;11729;50.836;4.330;2024-03-08T03:21:48;5.70;99.90
23120;DHT22;11729;50.836;4.330;2024-03-08T03:24:13;5.60;99.90
23120;DHT22;11729;50.836;4.330;2024-03-08T03:26:41;5.50;99.90
23120;DHT22;11729;50.836;4.330;2024-03-08T03:29:09;5.50;99.90
23120;DHT22;11729;50.836;4.330;2024-03-08T03:31:36;5.40;99.90
23120;DHT22;11729;50.836;4.330;2024-03-08T03:34:03;5.40;99.90
23120;DHT22;11729;50.836;4.330;2024-03-08T03:36:30;5.50;99.90
23120;DHT22;11729;50.836;4.330;2024-03-08T03:38:56;5.60;99.90
23120;DHT22;11729;50.836;4.330;2024-03-08T03:41:50;5.50;99.90
23120;DHT22;11729;50.836;4.330;2024-03-08T03:44:17;5.30;99.90
23120;DHT22;11729;50.836;4.330;2024-03-08T03:46:43;5.30;99.90
23120;DHT22;11729;50.836;4.330;2024-03-08T03:49:09;5.20;99.90
23120;DHT22;11729;50.836;4.330;2024-03-08T03:51:35;5.40;99.90
23120;DHT22;11729;50.836;4.330;2024-03-08T03:54:01;5.40;99.90
23120;DHT22;11729;50.836;4.330;2024-03-08T03:56:29;5.30;99.90
23120;DHT22;11729;50.836;4.330;2024-03-08T03:58:56;5.30;99.90
23120;DHT22;11729;50.836;4.330;2024-03-08T04:01:22;5.20;99.90
23120;DHT22;11729;50.836;4.330;2024-03-08T04:03:48;5.10;99.90
23120;DHT22;11729;50.836;4.330;2024-03-08T04:06:13;4.90;99.90
23120;DHT22;11729;50.836;4.330;2024-03-08T04:08:40;5.00;99.90
23120;DHT22;11729;50.836;4.330;2024-03-08T04:11:09;5.20;99.90
23120;DHT22;11729;50.836;4.330;2024-03-08T04:13:36;5.20;99.90
23120;DHT22;11729;50.836;4.330;2024-03-08T04:16:02;5.30;99.90
23120;DHT22;11729;50.836;4.330;2024-03-08T04:18:28;5.20;99.90
23120;DHT22;11729;50.836;4.330;2024-03-08T04:20:54;5.20;99.90
23120;DHT22;11729;50.836;4.330;2024-03-08T04:23:19;5.00;99.90
23120;DHT22;11729;50.836;4.330;2024-03-08T04:25:45;4.90;99.90
23120;DHT22;11729;50.836;4.330;2024-03-08T04:28:11;4.90;99.90
23120;DHT22;11729;50.836;4.330;2024-03-08T04:30:38;4.80;99.90
23120;DHT22;11729;50.836;4.330;2024-03-08T04:33:05;4.80;99.90
23120;DHT22;11729;50.836;4.330;2024-03-08T04:35:32;4.80;99.90
23120;DHT22;11729;50.836;4.330;2024-03-08T04:37:58;4.80;99.90
23120;DHT22;11729;50.836;4.330;2024-03-08T04:40:25;4.80;99.90
23120;DHT22;11729;50.836;4.330;2024-03-08T04:42:51;4.80;99.90
23120;DHT22;11729;50.836;4.330;2024-03-08T04:45:17;4.80;99.90
23120;DHT22;11729;50.836;4.330;2024-03-08T04:47:43;4.90;99.90
23120;DHT22;11729;50.836;4.330;2024-03-08T04:50:09;4.80;99.90
23120;DHT22;11729;50.836;4.330;2024-03-08T04:52:35;4.80;99.90
23120;DHT22;11729;50.836;4.330;2024-03-08T04:55:01;4.70;99.90
23120;DHT22;11729;50.836;4.330;2024-03-08T04:57:30;4.70;99.90
23120;DHT22;11729;50.836;4.330;2024-03-08T04:59:57;4.70;99.90
23120;DHT22;11729;50.836;4.330;2024-03-08T05:02:24;4.70;99.90
23120;DHT22;11729;50.836;4.330;2024-03-08T05:04:50;4.80;99.90
23120;DHT22;11729;50.836;4.330;2024-03-08T05:07:16;4.90;99.90
23120;DHT22;11729;50.836;4.330;2024-03-08T05:09:42;4.90;99.90
23120;DHT22;11729;50.836;4.330;2024-03-08T05:12:07;4.90;99.90
23120;DHT22;11729;50.836;4.330;2024-03-08T05:14:33;4.90;99.90
23120;DHT22;11729;50.836;4.330;2024-03-08T05:17:00;4.80;99.90
23120;DHT22;11729;50.836;4.330;2024-03-08T05:19:27;4.70;99.90
23120;DHT22;11729;50.836;4.330;2024-03-08T05:21:55;4.70;99.90
23120;DHT22;11729;50.836;4.330;2024-03-08T05:24:21;4.60;99.90
23120;DHT22;11729;50.836;4.330;2024-03-08T05:26:46;4.60;99.90
23120;DHT22;11729;50.836;4.330;2024-03-08T05:29:13;4.60;99.90
23120;DHT22;11729;50.836;4.330;2024-03-08T05:31:45;4.60;99.90
23120;DHT22;11729;50.836;4.330;2024-03-08T05:34:14;4.60;99.90
23120;DHT22;11729;50.836;4.330;2024-03-08T05:36:40;4.60;99.90
23120;DHT22;11729;50.836;4.330;2024-03-08T05:39:07;4.60;99.90
23120;DHT22;11729;50.836;4.330;2024-03-08T05:41:32;4.60;99.90
23120;DHT22;11729;50.836;4.330;2024-03-08T05:43:58;4.50;99.90
23120;DHT22;11729;50.836;4.330;2024-03-08T05:46:24;4.60;99.90
23120;DHT22;11729;50.836;4.330;2024-03-08T05:48:49;4.50;99.90
23120;DHT22;11729;50.836;4.330;2024-03-08T05:51:15;4.60;99.90
23120;DHT22;11729;50.836;4.330;2024-03-08T05:53:42;4.60;99.90
23120;DHT22;11729;50.836;4.330;2024-03-08T05:56:08;4.60;99.90
23120;DHT22;11729;50.836;4.330;2024-03-08T05:58:34;4.60;99.90
23120;DHT22;11729;50.836;4.330;2024-03-08T06:01:00;4.60;99.90
23120;DHT22;11729;50.836;4.330;2024-03-08T06:03:26;4.50;99.90
23120;DHT22;11729;50.836;4.330;2024-03-08T06:05:51;4.50;99.90
23120;DHT22;11729;50.836;4.330;2024-03-08T06:08:18;4.60;99.90
23120;DHT22;11729;50.836;4.330;2024-03-08T06:10:44;4.60;99.90
23120;DHT22;11729;50.836;4.330;2024-03-08T06:13:10;4.60;99.90
23120;DHT22;11729;50.836;4.330;2024-03-08T06:15:37;4.40;99.90
23120;DHT22;11729;50.836;4.330;2024-03-08T06:18:03;4.50;99.90
23120;DHT22;11729;50.836;4.330;2024-03-08T06:20:31;4.40;99.90
23120;DHT22;11729;50.836;4.330;2024-03-08T06:22:56;4.40;99.90
23120;DHT22;11729;50.836;4.330;2024-03-08T06:25:22;4.30;99.90
23120;DHT22;11729;50.836;4.330;2024-03-08T06:27:48;4.30;99.90
23120;DHT22;11729;50.836;4.330;2024-03-08T06:30:14;4.30;99.90
23120;DHT22;11729;50.836;4.330;2024-03-08T06:32:41;4.40;99.90
23120;DHT22;11729;50.836;4.330;2024-03-08T06:35:08;4.40;99.90
23120;DHT22;11729;50.836;4.330;2024-03-08T06:37:36;4.50;99.90
23120;DHT22;11729;50.836;4.330;2024-03-08T06:40:02;4.50;99.90
23120;DHT22;11729;50.836;4.330;2024-03-08T06:42:28;4.60;99.90
23120;DHT22;11729;50.836;4.330;2024-03-08T06:44:54;4.60;99.90
23120;DHT22;11729;50.836;4.330;2024-03-08T06:47:25;4.70;99.90
23120;DHT22;11729;50.836;4.330;2024-03-08T06:49:51;4.80;99.90
23120;DHT22;11729;50.836;4.330;2024-03-08T06:52:19;4.80;99.90
23120;DHT22;11729;50.836;4.330;2024-03-08T06:54:45;4.90;99.90
23120;DHT22;11729;50.836;4.330;2024-03-08T06:57:10;5.00;99.90
23120;DHT22;11729;50.836;4.330;2024-03-08T06:59:36;4.90;99.90
23120;DHT22;11729;50.836;4.330;2024-03-08T07:02:02;5.00;99.90
23120;DHT22;11729;50.836;4.330;2024-03-08T07:04:29;5.20;99.90
23120;DHT22;11729;50.836;4.330;2024-03-08T07:06:56;5.10;99.90
23120;DHT22;11729;50.836;4.330;2024-03-08T07:09:23;5.20;99.90
23120;DHT22;11729;50.836;4.330;2024-03-08T07:11:51;5.30;99.90
23120;DHT22;11729;50.836;4.330;2024-03-08T07:14:24;4.90;99.90
23120;DHT22;11729;50.836;4.330;2024-03-08T07:16:52;5.00;99.90
23120;DHT22;11729;50.836;4.330;2024-03-08T07:19:18;4.90;99.90
23120;DHT22;11729;50.836;4.330;2024-03-08T07:21:45;4.80;99.90
23120;DHT22;11729;50.836;4.330;2024-03-08T07:24:11;4.70;99.90
23120;DHT22;11729;50.836;4.330;2024-03-08T07:26:42;4.80;99.90
23120;DHT22;11729;50.836;4.330;2024-03-08T07:29:09;4.90;99.90
23120;DHT22;11729;50.836;4.330;2024-03-08T07:31:34;5.00;99.90
23120;DHT22;11729;50.836;4.330;2024-03-08T07:34:11;5.20;99.90
23120;DHT22;11729;50.836;4.330;2024-03-08T07:36:37;5.50;99.90
23120;DHT22;11729;50.836;4.330;2024-03-08T07:39:03;5.50;99.90
23120;DHT22;11729;50.836;4.330;2024-03-08T07:41:37;5.10;99.90
23120;DHT22;11729;50.836;4.330;2024-03-08T07:44:08;5.10;99.90
23120;DHT22;11729;50.836;4.330;2024-03-08T07:46:34;5.30;99.90
23120;DHT22;11729;50.836;4.330;2024-03-08T07:49:00;5.70;99.90
23120;DHT22;11729;50.836;4.330;2024-03-08T07:51:26;6.40;99.90
23120;DHT22;11729;50.836;4.330;2024-03-08T07:53:52;7.00;99.90
23120;DHT22;11729;50.836;4.330;2024-03-08T07:56:19;7.30;99.90
23120;DHT22;11729;50.836;4.330;2024-03-08T07:58:46;7.50;99.90
23120;DHT22;11729;50.836;4.330;2024-03-08T08:01:18;8.10;99.90
23120;DHT22;11729;50.836;4.330;2024-03-08T08:03:44;8.90;99.90
23120;DHT22;11729;50.836;4.330;2024-03-08T08:06:10;9.40;99.90
23120;DHT22;11729;50.836;4.330;2024-03-08T08:08:41;9.60;99.90
23120;DHT22;11729;50.836;4.330;2024-03-08T08:11:08;8.90;99.90
23120;DHT22;11729;50.836;4.330;2024-03-08T08:13:34;8.70;99.90
23120;DHT22;11729;50.836;4.330;2024-03-08T08:16:02;9.00;99.90
23120;DHT22;11729;50.836;4.330;2024-03-08T08:18:28;9.10;99.90
23120;DHT22;11729;50.836;4.330;2024-03-08T08:20:55;9.10;99.90
23120;DHT22;11729;50.836;4.330;2024-03-08T08:23:21;9.10;99.90
23120;DHT22;11729;50.836;4.330;2024-03-08T08:25:47;9.20;99.90
23120;DHT22;11729;50.836;4.330;2024-03-08T08:28:16;8.70;99.90
23120;DHT22;11729;50.836;4.330;2024-03-08T08:30:43;9.40;99.90
23120;DHT22;11729;50.836;4.330;2024-03-08T08:33:09;9.60;99.90
23120;DHT22;11729;50.836;4.330;2024-03-08T08:35:36;10.30;99.90
23120;DHT22;11729;50.836;4.330;2024-03-08T08:38:03;10.20;99.90
23120;DHT22;11729;50.836;4.330;2024-03-08T08:40:29;9.50;99.90
23120;DHT22;11729;50.836;4.330;2024-03-08T08:42:57;9.50;99.90
23120;DHT22;11729;50.836;4.330;2024-03-08T08:45:24;9.60;99.90
23120;DHT22;11729;50.836;4.330;2024-03-08T08:47:50;10.10;99.90
23120;DHT22;11729;50.836;4.330;2024-03-08T08:50:17;9.70;99.90
23120;DHT22;11729;50.836;4.330;2024-03-08T08:52:49;9.10;99.90
23120;DHT22;11729;50.836;4.330;2024-03-08T08:55:15;8.80;99.90
23120;DHT22;11729;50.836;4.330;2024-03-08T08:57:47;9.60;99.90
23120;DHT22;11729;50.836;4.330;2024-03-08T09:00:13;9.60;99.90
23120;DHT22;11729;50.836;4.330;2024-03-08T09:02:42;9.70;99.90
23120;DHT22;11729;50.836;4.330;2024-03-08T09:05:08;10.10;99.90
23120;DHT22;11729;50.836;4.330;2024-03-08T09:07:33;10.40;99.90
23120;DHT22;11729;50.836;4.330;2024-03-08T09:10:00;10.40;99.90
23120;DHT22;11729;50.836;4.330;2024-03-08T09:12:26;10.60;99.90
23120;DHT22;11729;50.836;4.330;2024-03-08T09:14:52;10.20;99.90
23120;DHT22;11729;50.836;4.330;2024-03-08T09:17:17;10.20;99.90
23120;DHT22;11729;50.836;4.330;2024-03-08T09:19:46;10.30;99.90
23120;DHT22;11729;50.836;4.330;2024-03-08T09:22:16;10.10;99.90
23120;DHT22;11729;50.836;4.330;2024-03-08T09:24:41;9.40;99.90
23120;DHT22;11729;50.836;4.330;2024-03-08T09:27:09;9.60;99.90
23120;DHT22;11729;50.836;4.330;2024-03-08T09:29:35;9.70;99.90
23120;DHT22;11729;50.836;4.330;2024-03-08T09:32:01;10.00;99.90
23120;DHT22;11729;50.836;4.330;2024-03-08T09:34:27;9.70;99.90
23120;DHT22;11729;50.836;4.330;2024-03-08T09:36:52;9.70;99.90
23120;DHT22;11729;50.836;4.330;2024-03-08T09:39:19;9.60;99.90
23120;DHT22;11729;50.836;4.330;2024-03-08T09:41:47;9.30;99.90
23120;DHT22;11729;50.836;4.330;2024-03-08T09:44:18;9.20;99.90
23120;DHT22;11729;50.836;4.330;2024-03-08T09:46:46;9.50;99.90
23120;DHT22;11729;50.836;4.330;2024-03-08T09:49:16;9.90;99.90
23120;DHT22;11729;50.836;4.330;2024-03-08T09:51:42;9.90;99.90
23120;DHT22;11729;50.836;4.330;2024-03-08T09:54:08;9.70;99.90
23120;DHT22;11729;50.836;4.330;2024-03-08T09:56:35;9.60;99.90
23120;DHT22;11729;50.836;4.330;2024-03-08T09:59:01;9.70;99.90
23120;DHT22;11729;50.836;4.330;2024-03-08T10:01:30;10.00;99.90
23120;DHT22;11729;50.836;4.330;2024-03-08T10:03:57;10.20;99.90
23120;DHT22;11729;50.836;4.330;2024-03-08T10:06:23;10.60;99.90
23120;DHT22;11729;50.836;4.330;2024-03-08T10:08:50;10.60;99.90
23120;DHT22;11729;50.836;4.330;2024-03-08T10:11:19;10.90;99.90
23120;DHT22;11729;50.836;4.330;2024-03-08T10:13:45;11.80;99.90
23120;DHT22;11729;50.836;4.330;2024-03-08T10:16:13;11.70;99.90
23120;DHT22;11729;50.836;4.330;2024-03-08T10:18:38;11.70;99.90
23120;DHT22;11729;50.836;4.330;2024-03-08T10:21:06;11.70;99.90
23120;DHT22;11729;50.836;4.330;2024-03-08T10:23:33;11.90;99.90
23120;DHT22;11729;50.836;4.330;2024-03-08T10:26:12;12.10;99.90
23120;DHT22;11729;50.836;4.330;2024-03-08T10:28:51;11.70;99.90
23120;DHT22;11729;50.836;4.330;2024-03-08T10:31:18;11.80;99.90
23120;DHT22;11729;50.836;4.330;2024-03-08T10:33:45;11.90;99.90
23120;DHT22;11729;50.836;4.330;2024-03-08T10:36:13;11.70;99.90
23120;DHT22;11729;50.836;4.330;2024-03-08T10:38:40;12.30;99.90
23120;DHT22;11729;50.836;4.330;2024-03-08T10:41:08;12.30;99.90
23120;DHT22;11729;50.836;4.330;2024-03-08T10:48:55;11.80;99.90
23120;DHT22;11729;50.836;4.330;2024-03-08T10:51:24;12.70;99.90
23120;DHT22;11729;50.836;4.330;2024-03-08T10:53:52;13.20;99.90
23120;DHT22;11729;50.836;4.330;2024-03-08T10:56:18;12.50;99.90
23120;DHT22;11729;50.836;4.330;2024-03-08T10:58:44;12.60;99.90
23120;DHT22;11729;50.836;4.330;2024-03-08T11:01:11;12.30;99.90
23120;DHT22;11729;50.836;4.330;2024-03-08T11:03:49;12.50;99.90
23120;DHT22;11729;50.836;4.330;2024-03-08T11:08:48;12.80;99.90
23120;DHT22;11729;50.836;4.330;2024-03-08T11:11:29;13.40;99.90
23120;DHT22;11729;50.836;4.330;2024-03-08T11:13:58;13.70;98.30
23120;DHT22;11729;50.836;4.330;2024-03-08T11:21:57;14.50;95.30
23120;DHT22;11729;50.836;4.330;2024-03-08T11:24:23;14.20;96.20
23120;DHT22;11729;50.836;4.330;2024-03-08T11:26:49;14.00;95.90
23120;DHT22;11729;50.836;4.330;2024-03-08T11:32:20;13.80;96.80
23120;DHT22;11729;50.836;4.330;2024-03-08T11:34:48;14.10;96.70
23120;DHT22;11729;50.836;4.330;2024-03-08T11:37:18;14.90;95.00
23120;DHT22;11729;50.836;4.330;2024-03-08T11:39:52;15.10;94.40
23120;DHT22;11729;50.836;4.330;2024-03-08T11:42:19;15.20;94.20
23120;DHT22;11729;50.836;4.330;2024-03-08T11:44:47;14.40;94.40
23120;DHT22;11729;50.836;4.330;2024-03-08T11:47:14;13.60;96.20
23120;DHT22;11729;50.836;4.330;2024-03-08T11:49:40;14.20;96.50
23120;DHT22;11729;50.836;4.330;2024-03-08T11:52:15;15.00;94.50
23120;DHT22;11729;50.836;4.330;2024-03-08T11:54:43;14.80;94.60
23120;DHT22;11729;50.836;4.330;2024-03-08T11:57:13;15.60;93.80
23120;DHT22;11729;50.836;4.330;2024-03-08T11:59:39;15.90;92.80
23120;DHT22;11729;50.836;4.330;2024-03-08T12:02:06;15.50;91.90
23120;DHT22;11729;50.836;4.330;2024-03-08T12:04:32;15.20;92.60
23120;DHT22;11729;50.836;4.330;2024-03-08T12:07:01;15.20;92.40
23120;DHT22;11729;50.836;4.330;2024-03-08T12:09:35;14.60;92.90
23120;DHT22;11729;50.836;4.330;2024-03-08T12:12:02;14.60;94.00
23120;DHT22;11729;50.836;4.330;2024-03-08T12:14:30;14.70;93.30
23120;DHT22;11729;50.836;4.330;2024-03-08T12:16:57;14.40;94.50
23120;DHT22;11729;50.836;4.330;2024-03-08T12:19:23;14.10;94.80
23120;DHT22;11729;50.836;4.330;2024-03-08T12:21:49;14.50;94.70
23120;DHT22;11729;50.836;4.330;2024-03-08T12:24:16;14.70;94.40
23120;DHT22;11729;50.836;4.330;2024-03-08T12:26:46;15.20;93.90
23120;DHT22;11729;50.836;4.330;2024-03-08T12:29:26;15.40;94.10
23120;DHT22;11729;50.836;4.330;2024-03-08T12:31:59;16.50;91.10
23120;DHT22;11729;50.836;4.330;2024-03-08T12:34:26;16.90;89.50
23120;DHT22;11729;50.836;4.330;2024-03-08T12:36:58;17.40;86.50
23120;DHT22;11729;50.836;4.330;2024-03-08T12:39:24;17.80;86.00
23120;DHT22;11729;50.836;4.330;2024-03-08T12:41:54;17.70;83.40
23120;DHT22;11729;50.836;4.330;2024-03-08T12:44:20;17.60;83.20
23120;DHT22;11729;50.836;4.330;2024-03-08T12:46:50;17.50;85.60
23120;DHT22;11729;50.836;4.330;2024-03-08T12:49:17;17.40;82.50
23120;DHT22;11729;50.836;4.330;2024-03-08T12:51:48;17.70;84.60
23120;DHT22;11729;50.836;4.330;2024-03-08T12:54:14;18.00;84.00
23120;DHT22;11729;50.836;4.330;2024-03-08T12:56:39;18.40;80.80
23120;DHT22;11729;50.836;4.330;2024-03-08T12:59:07;17.80;79.20
23120;DHT22;11729;50.836;4.330;2024-03-08T13:01:34;17.80;78.70
23120;DHT22;11729;50.836;4.330;2024-03-08T13:04:03;17.80;79.00
23120;DHT22;11729;50.836;4.330;2024-03-08T13:06:29;17.80;78.50
23120;DHT22;11729;50.836;4.330;2024-03-08T13:08:57;18.10;77.00
23120;DHT22;11729;50.836;4.330;2024-03-08T13:11:24;17.50;81.70
23120;DHT22;11729;50.836;4.330;2024-03-08T13:13:53;17.20;78.80
23120;DHT22;11729;50.836;4.330;2024-03-08T13:16:20;16.00;82.30
23120;DHT22;11729;50.836;4.330;2024-03-08T13:18:46;15.90;86.00
23120;DHT22;11729;50.836;4.330;2024-03-08T13:21:14;16.20;86.20
23120;DHT22;11729;50.836;4.330;2024-03-08T13:23:41;16.70;85.80
23120;DHT22;11729;50.836;4.330;2024-03-08T13:26:13;15.90;85.50
23120;DHT22;11729;50.836;4.330;2024-03-08T13:28:47;15.70;88.40
23120;DHT22;11729;50.836;4.330;2024-03-08T13:31:21;15.90;86.80
23120;DHT22;11729;50.836;4.330;2024-03-08T13:33:46;15.60;87.20
23120;DHT22;11729;50.836;4.330;2024-03-08T13:36:13;15.70;87.80
23120;DHT22;11729;50.836;4.330;2024-03-08T13:38:48;15.90;87.50
23120;DHT22;11729;50.836;4.330;2024-03-08T13:41:15;16.50;88.60
23120;DHT22;11729;50.836;4.330;2024-03-08T13:43:46;16.60;83.70
23120;DHT22;11729;50.836;4.330;2024-03-08T13:46:12;16.20;84.40
23120;DHT22;11729;50.836;4.330;2024-03-08T13:48:38;15.40;86.20
23120;DHT22;11729;50.836;4.330;2024-03-08T13:51:04;14.90;89.80
23120;DHT22;11729;50.836;4.330;2024-03-08T13:53:32;14.60;90.70
23120;DHT22;11729;50.836;4.330;2024-03-08T13:56:04;15.30;91.10
23120;DHT22;11729;50.836;4.330;2024-03-08T13:58:30;15.70;88.50
23120;DHT22;11729;50.836;4.330;2024-03-08T14:00:56;16.60;87.40
23120;DHT22;11729;50.836;4.330;2024-03-08T14:03:22;17.20;83.40
23120;DHT22;11729;50.836;4.330;2024-03-08T14:05:50;16.90;82.30
23120;DHT22;11729;50.836;4.330;2024-03-08T14:08:16;15.90;84.90
23120;DHT22;11729;50.836;4.330;2024-03-08T14:10:44;15.80;86.80
23120;DHT22;11729;50.836;4.330;2024-03-08T14:13:12;16.50;85.70
23120;DHT22;11729;50.836;4.330;2024-03-08T14:15:39;17.00;83.70
23120;DHT22;11729;50.836;4.330;2024-03-08T14:18:08;16.50;83.40
23120;DHT22;11729;50.836;4.330;2024-03-08T14:20:33;16.40;84.30
23120;DHT22;11729;50.836;4.330;2024-03-08T14:22:59;15.70;85.90
23120;DHT22;11729;50.836;4.330;2024-03-08T14:25:25;15.50;87.10
23120;DHT22;11729;50.836;4.330;2024-03-08T14:27:53;15.20;88.90
23120;DHT22;11729;50.836;4.330;2024-03-08T14:30:19;15.10;90.90
23120;DHT22;11729;50.836;4.330;2024-03-08T14:33:07;15.10;90.30
23120;DHT22;11729;50.836;4.330;2024-03-08T14:35:40;14.90;90.80
23120;DHT22;11729;50.836;4.330;2024-03-08T14:38:06;14.80;91.70
23120;DHT22;11729;50.836;4.330;2024-03-08T14:40:39;14.60;91.90
23120;DHT22;11729;50.836;4.330;2024-03-08T14:43:06;14.80;91.70
23120;DHT22;11729;50.836;4.330;2024-03-08T14:45:31;14.40;91.90
23120;DHT22;11729;50.836;4.330;2024-03-08T14:47:57;14.50;92.60
23120;DHT22;11729;50.836;4.330;2024-03-08T14:50:24;14.50;92.20
23120;DHT22;11729;50.836;4.330;2024-03-08T14:52:50;14.30;92.20
23120;DHT22;11729;50.836;4.330;2024-03-08T14:55:20;14.00;93.10
23120;DHT22;11729;50.836;4.330;2024-03-08T14:57:50;14.20;94.20
23120;DHT22;11729;50.836;4.330;2024-03-08T15:00:18;14.30;94.30
23120;DHT22;11729;50.836;4.330;2024-03-08T15:02:59;14.40;93.00
23120;DHT22;11729;50.836;4.330;2024-03-08T15:05:25;14.30;93.20
23120;DHT22;11729;50.836;4.330;2024-03-08T15:07:58;14.30;94.00
23120;DHT22;11729;50.836;4.330;2024-03-08T15:10:26;14.40;94.00
23120;DHT22;11729;50.836;4.330;2024-03-08T15:12:54;14.30;93.60
23120;DHT22;11729;50.836;4.330;2024-03-08T15:15:21;14.10;93.60
23120;DHT22;11729;50.836;4.330;2024-03-08T15:17:48;14.10;93.90
23120;DHT22;11729;50.836;4.330;2024-03-08T15:20:14;14.10;93.60
23120;DHT22;11729;50.836;4.330;2024-03-08T15:22:47;14.00;94.30
23120;DHT22;11729;50.836;4.330;2024-03-08T15:25:13;13.90;94.10
23120;DHT22;11729;50.836;4.330;2024-03-08T15:27:46;14.00;94.50
23120;DHT22;11729;50.836;4.330;2024-03-08T15:30:12;14.10;94.70
23120;DHT22;11729;50.836;4.330;2024-03-08T15:32:45;14.00;94.30
23120;DHT22;11729;50.836;4.330;2024-03-08T15:35:13;13.90;94.80
23120;DHT22;11729;50.836;4.330;2024-03-08T15:37:46;13.90;94.70
23120;DHT22;11729;50.836;4.330;2024-03-08T15:40:13;14.00;94.50
23120;DHT22;11729;50.836;4.330;2024-03-08T15:42:57;14.10;94.50
23120;DHT22;11729;50.836;4.330;2024-03-08T15:45:24;14.20;95.50
23120;DHT22;11729;50.836;4.330;2024-03-08T15:48:10;14.20;95.10
23120;DHT22;11729;50.836;4.330;2024-03-08T15:50:36;14.10;94.50
23120;DHT22;11729;50.836;4.330;2024-03-08T15:53:01;13.90;94.90
23120;DHT22;11729;50.836;4.330;2024-03-08T15:55:27;13.80;95.10
23120;DHT22;11729;50.836;4.330;2024-03-08T15:57:55;13.80;95.40